Helsinki Malmi Airport


Codes: EFHF/HEM
Name: Helsinki Malmi Airport
City: Helsinki
Country: Finland
Elevation: 57 ft.
Wikipedia:

Photos at Helsinki Malmi Airport


   Photos courtesy of SpottingLog. You can add your own sightings and photos by signing up for a free trial today.



No photos found.

Weather at Helsinki Malmi Airport


Time (UTC)DescriptionTempratureWindCloud coverageVisibilityPressureHumidity
17-Jun-2024 03:00Clear Sky15°C7 mph, E0%10000m1015hPa85%
17-Jun-2024 06:00Scattered Clouds15°C9 mph, E30%10000m1015hPa81%
17-Jun-2024 09:00Broken Clouds17°C9 mph, E63%10000m1015hPa69%
17-Jun-2024 12:00Light Rain19°C9 mph, SE96%10000m1014hPa66%
17-Jun-2024 15:00Light Rain14°C7 mph, SE100%10000m1013hPa89%
17-Jun-2024 18:00Light Rain14°C4 mph, SE100%10000m1012hPa98%
17-Jun-2024 21:00Light Rain15°C2 mph, SE100%10000m1012hPa99%
18-Jun-2024 00:00Light Rain14°C2 mph, S100%325m1011hPa100%
18-Jun-2024 03:00Light Rain15°C4 mph, N100%0m1010hPa99%
18-Jun-2024 06:00Light Rain16°C4 mph, W100%10000m1009hPa92%
18-Jun-2024 09:00Broken Clouds20°C9 mph, SW70%10000m1009hPa55%
18-Jun-2024 12:00Scattered Clouds21°C16 mph, SW38%10000m1008hPa47%
18-Jun-2024 15:00Clear Sky19°C13 mph, SW6%10000m1008hPa59%
18-Jun-2024 18:00Clear Sky16°C11 mph, SW3%10000m1008hPa77%
18-Jun-2024 21:00Clear Sky12°C9 mph, SW0%10000m1008hPa88%
19-Jun-2024 00:00Clear Sky12°C9 mph, SW0%10000m1008hPa92%
19-Jun-2024 03:00Broken Clouds13°C11 mph, SW51%10000m1006hPa87%
19-Jun-2024 06:00Broken Clouds15°C11 mph, SW65%10000m1005hPa78%
19-Jun-2024 09:00Broken Clouds18°C11 mph, SW78%10000m1004hPa62%
19-Jun-2024 12:00Overcast Clouds17°C11 mph, SW89%10000m1002hPa59%
19-Jun-2024 15:00Overcast Clouds16°C9 mph, SW100%10000m1000hPa65%
19-Jun-2024 18:00Overcast Clouds14°C9 mph, SW100%10000m998hPa80%
19-Jun-2024 21:00Overcast Clouds11°C7 mph, SW100%10000m998hPa94%
20-Jun-2024 00:00Light Rain10°C7 mph, W97%10000m997hPa97%
20-Jun-2024 03:00Light Rain10°C9 mph, W100%10000m997hPa95%
20-Jun-2024 06:00Overcast Clouds13°C11 mph, W99%10000m998hPa75%
20-Jun-2024 09:00Overcast Clouds14°C13 mph, W99%10000m999hPa71%
20-Jun-2024 12:00Overcast Clouds13°C16 mph, W99%10000m1001hPa76%
20-Jun-2024 15:00Overcast Clouds12°C13 mph, NW100%10000m1003hPa79%
20-Jun-2024 18:00Broken Clouds15°C16 mph, W65%10000m1004hPa62%
20-Jun-2024 21:00Clear Sky12°C13 mph, W7%10000m1004hPa64%
21-Jun-2024 00:00Clear Sky11°C13 mph, W7%10000m1004hPa67%
21-Jun-2024 03:00Scattered Clouds12°C13 mph, NW31%10000m1005hPa73%
21-Jun-2024 06:00Few Clouds15°C16 mph, NW17%10000m1005hPa57%
21-Jun-2024 09:00Few Clouds18°C18 mph, NW21%10000m1005hPa44%
21-Jun-2024 12:00Broken Clouds17°C13 mph, NW55%10000m1006hPa50%
21-Jun-2024 15:00Overcast Clouds18°C13 mph, NW91%10000m1006hPa49%
21-Jun-2024 18:00Broken Clouds15°C13 mph, NW74%10000m1008hPa58%
21-Jun-2024 21:00Clear Sky12°C11 mph, NW0%10000m1010hPa64%
22-Jun-2024 00:00Clear Sky9°C9 mph, NW0%10000m1011hPa66%